Terminal Aerodrome Forecast
Issued by NWS

Home | Current Version | Previous Version | Text Only | Print | Product List | Glossary On
Versions: 1 2 3 4 5 6 7 8 9 10 11 12 13 14 15 16 17 18 19 20
000
FTUS45 KABQ 170059 AAA
TAFSAF
TAF AMD
KSAF 170059Z 1701/1724 13011KT P6SM VCSH SCT015 OVC025
      TEMPO 1701/1703 4SM -RASN BR BKN015
     FM170600 13011KT P6SM BKN040
     FM171000 13005KT P6SM BKN030
     FM172000 27005KT P6SM SCT040=

USA.gov is the U.S. government's official web portal to all federal, state and local government web resources and services.